Farragut, Tennessee
Current Conditions -  °F | °C
As of 12:53 PM on Thursday 29 Jan 2015 (Local Time) from KTYS Reporting Station
Scattered Clouds Scattered Clouds  
Wind Chill: 44°   Ceiling: Unl
Heat Index: 44°   Visibility: 10mi
Dew Point: 35°   Wind: 3mph
Humidity: 71%   Direction: 290°WNW
Pressure: 30.08"   Gusts: NA
Location:  35.8674°N, 84.0989°W
Report Text: KTYS 291753Z 29003KT 10SM FEW070 SCT110 SCT150 SCT250 07/02 A3008 RMK AO2 PRESFR SLP191 60002 T00670017 10067 21028 58034
Loading
Personal Weather Stations






























Interactive Weather Map New forecast layout! Learn more

10-Day Weather Forecast

Advertisements
Track Severe Weather on mobile